sensor_id;sensor_type;location;lat;lon;timestamp;P1;durP1;ratioP1;P2;durP2;ratioP2
69310;SDS011;56430;48.154;16.458;2024-01-07T00:02:20;9.23;;;3.40;;
69310;SDS011;56430;48.154;16.458;2024-01-07T00:04:47;7.32;;;3.40;;
69310;SDS011;56430;48.154;16.458;2024-01-07T00:07:14;8.68;;;3.40;;
69310;SDS011;56430;48.154;16.458;2024-01-07T00:09:42;9.55;;;3.90;;
69310;SDS011;56430;48.154;16.458;2024-01-07T00:12:10;8.93;;;3.30;;
69310;SDS011;56430;48.154;16.458;2024-01-07T00:14:37;8.87;;;3.43;;
69310;SDS011;56430;48.154;16.458;2024-01-07T00:17:05;7.88;;;2.95;;
69310;SDS011;56430;48.154;16.458;2024-01-07T00:19:32;8.50;;;3.00;;
69310;SDS011;56430;48.154;16.458;2024-01-07T00:22:01;6.32;;;2.60;;
69310;SDS011;56430;48.154;16.458;2024-01-07T00:24:28;6.57;;;2.83;;
69310;SDS011;56430;48.154;16.458;2024-01-07T00:26:55;6.60;;;2.80;;
69310;SDS011;56430;48.154;16.458;2024-01-07T00:29:23;7.60;;;2.65;;
69310;SDS011;56430;48.154;16.458;2024-01-07T00:31:51;7.03;;;2.92;;
69310;SDS011;56430;48.154;16.458;2024-01-07T00:34:18;5.88;;;2.70;;
69310;SDS011;56430;48.154;16.458;2024-01-07T00:36:45;8.45;;;2.63;;
69310;SDS011;56430;48.154;16.458;2024-01-07T00:39:12;7.27;;;3.00;;
69310;SDS011;56430;48.154;16.458;2024-01-07T00:41:39;7.40;;;2.70;;
69310;SDS011;56430;48.154;16.458;2024-01-07T00:44:06;6.85;;;2.47;;
69310;SDS011;56430;48.154;16.458;2024-01-07T00:46:35;6.50;;;2.65;;
69310;SDS011;56430;48.154;16.458;2024-01-07T00:49:02;7.55;;;2.55;;
69310;SDS011;56430;48.154;16.458;2024-01-07T00:51:29;6.03;;;2.53;;
69310;SDS011;56430;48.154;16.458;2024-01-07T00:53:56;6.22;;;2.60;;
69310;SDS011;56430;48.154;16.458;2024-01-07T00:56:25;8.02;;;2.70;;
69310;SDS011;56430;48.154;16.458;2024-01-07T00:58:52;7.80;;;2.90;;
69310;SDS011;56430;48.154;16.458;2024-01-07T01:01:19;5.88;;;2.40;;
69310;SDS011;56430;48.154;16.458;2024-01-07T01:03:48;6.57;;;2.60;;
69310;SDS011;56430;48.154;16.458;2024-01-07T01:06:15;8.18;;;2.70;;
69310;SDS011;56430;48.154;16.458;2024-01-07T01:08:42;6.38;;;2.35;;
69310;SDS011;56430;48.154;16.458;2024-01-07T01:11:09;7.55;;;2.67;;
69310;SDS011;56430;48.154;16.458;2024-01-07T01:13:37;6.63;;;2.85;;
69310;SDS011;56430;48.154;16.458;2024-01-07T01:16:05;6.97;;;2.40;;
69310;SDS011;56430;48.154;16.458;2024-01-07T01:18:33;5.90;;;2.50;;
69310;SDS011;56430;48.154;16.458;2024-01-07T01:21:01;7.03;;;2.00;;
69310;SDS011;56430;48.154;16.458;2024-01-07T01:23:28;5.35;;;2.25;;
69310;SDS011;56430;48.154;16.458;2024-01-07T01:25:55;5.15;;;2.00;;
69310;SDS011;56430;48.154;16.458;2024-01-07T01:28:23;6.93;;;2.23;;
69310;SDS011;56430;48.154;16.458;2024-01-07T01:30:50;4.70;;;2.10;;
69310;SDS011;56430;48.154;16.458;2024-01-07T01:33:17;6.72;;;2.53;;
69310;SDS011;56430;48.154;16.458;2024-01-07T01:35:44;6.32;;;2.60;;
69310;SDS011;56430;48.154;16.458;2024-01-07T01:38:12;6.97;;;2.65;;
69310;SDS011;56430;48.154;16.458;2024-01-07T01:40:39;6.33;;;2.30;;
69310;SDS011;56430;48.154;16.458;2024-01-07T01:43:07;5.53;;;2.15;;
69310;SDS011;56430;48.154;16.458;2024-01-07T01:45:34;6.72;;;2.42;;
69310;SDS011;56430;48.154;16.458;2024-01-07T01:48:01;6.88;;;2.47;;
69310;SDS011;56430;48.154;16.458;2024-01-07T01:50:28;5.57;;;2.35;;
69310;SDS011;56430;48.154;16.458;2024-01-07T01:52:55;7.43;;;2.73;;
69310;SDS011;56430;48.154;16.458;2024-01-07T01:55:24;7.43;;;2.22;;
69310;SDS011;56430;48.154;16.458;2024-01-07T01:57:51;5.45;;;2.20;;
69310;SDS011;56430;48.154;16.458;2024-01-07T02:00:18;6.43;;;2.50;;
69310;SDS011;56430;48.154;16.458;2024-01-07T02:02:46;6.20;;;2.13;;
69310;SDS011;56430;48.154;16.458;2024-01-07T02:08:23;6.00;;;2.25;;
69310;SDS011;56430;48.154;16.458;2024-01-07T02:10:51;7.22;;;2.20;;
69310;SDS011;56430;48.154;16.458;2024-01-07T02:13:18;6.82;;;2.58;;
69310;SDS011;56430;48.154;16.458;2024-01-07T02:15:46;5.07;;;2.50;;
69310;SDS011;56430;48.154;16.458;2024-01-07T02:18:13;5.80;;;2.20;;
69310;SDS011;56430;48.154;16.458;2024-01-07T02:20:40;8.18;;;2.30;;
69310;SDS011;56430;48.154;16.458;2024-01-07T02:23:07;7.03;;;2.33;;
69310;SDS011;56430;48.154;16.458;2024-01-07T02:25:36;7.40;;;2.35;;
69310;SDS011;56430;48.154;16.458;2024-01-07T02:28:04;7.10;;;2.53;;
69310;SDS011;56430;48.154;16.458;2024-01-07T02:30:31;7.10;;;2.17;;
69310;SDS011;56430;48.154;16.458;2024-01-07T02:33:00;6.82;;;2.72;;
69310;SDS011;56430;48.154;16.458;2024-01-07T02:35:28;7.07;;;2.40;;
69310;SDS011;56430;48.154;16.458;2024-01-07T02:37:55;7.15;;;2.45;;
69310;SDS011;56430;48.154;16.458;2024-01-07T02:40:22;6.65;;;2.53;;
69310;SDS011;56430;48.154;16.458;2024-01-07T02:42:51;7.60;;;3.03;;
69310;SDS011;56430;48.154;16.458;2024-01-07T02:45:18;5.65;;;2.20;;
69310;SDS011;56430;48.154;16.458;2024-01-07T02:47:45;6.57;;;2.35;;
69310;SDS011;56430;48.154;16.458;2024-01-07T02:50:12;5.18;;;2.03;;
69310;SDS011;56430;48.154;16.458;2024-01-07T02:52:40;5.30;;;2.10;;
69310;SDS011;56430;48.154;16.458;2024-01-07T02:55:07;8.27;;;3.03;;
69310;SDS011;56430;48.154;16.458;2024-01-07T02:57:35;6.53;;;2.22;;
69310;SDS011;56430;48.154;16.458;2024-01-07T03:00:04;7.38;;;2.95;;
69310;SDS011;56430;48.154;16.458;2024-01-07T03:02:32;6.65;;;2.58;;
69310;SDS011;56430;48.154;16.458;2024-01-07T03:04:59;7.10;;;2.80;;
69310;SDS011;56430;48.154;16.458;2024-01-07T03:07:26;6.20;;;2.80;;
69310;SDS011;56430;48.154;16.458;2024-01-07T03:09:53;6.47;;;2.70;;
69310;SDS011;56430;48.154;16.458;2024-01-07T03:12:20;8.20;;;2.92;;
69310;SDS011;56430;48.154;16.458;2024-01-07T03:14:47;9.25;;;3.15;;
69310;SDS011;56430;48.154;16.458;2024-01-07T03:17:16;7.90;;;2.78;;
69310;SDS011;56430;48.154;16.458;2024-01-07T03:19:43;7.27;;;2.80;;
69310;SDS011;56430;48.154;16.458;2024-01-07T03:22:10;7.40;;;2.60;;
69310;SDS011;56430;48.154;16.458;2024-01-07T03:24:37;7.20;;;2.88;;
69310;SDS011;56430;48.154;16.458;2024-01-07T03:27:05;8.80;;;2.90;;
69310;SDS011;56430;48.154;16.458;2024-01-07T03:29:32;8.07;;;3.17;;
69310;SDS011;56430;48.154;16.458;2024-01-07T03:31:59;7.20;;;2.63;;
69310;SDS011;56430;48.154;16.458;2024-01-07T03:34:28;7.40;;;2.92;;
69310;SDS011;56430;48.154;16.458;2024-01-07T03:36:55;8.93;;;3.53;;
69310;SDS011;56430;48.154;16.458;2024-01-07T03:39:23;9.77;;;3.33;;
69310;SDS011;56430;48.154;16.458;2024-01-07T03:42:02;7.20;;;2.78;;
69310;SDS011;56430;48.154;16.458;2024-01-07T03:44:31;9.13;;;3.03;;
69310;SDS011;56430;48.154;16.458;2024-01-07T03:46:59;7.63;;;2.88;;
69310;SDS011;56430;48.154;16.458;2024-01-07T03:49:27;6.78;;;2.70;;
69310;SDS011;56430;48.154;16.458;2024-01-07T03:51:54;6.22;;;3.05;;
69310;SDS011;56430;48.154;16.458;2024-01-07T03:54:21;8.88;;;3.53;;
69310;SDS011;56430;48.154;16.458;2024-01-07T03:56:48;8.60;;;3.20;;
69310;SDS011;56430;48.154;16.458;2024-01-07T03:59:15;9.75;;;3.20;;
69310;SDS011;56430;48.154;16.458;2024-01-07T04:01:43;9.70;;;3.45;;
69310;SDS011;56430;48.154;16.458;2024-01-07T04:04:10;8.93;;;3.53;;
69310;SDS011;56430;48.154;16.458;2024-01-07T04:06:38;8.63;;;3.58;;
69310;SDS011;56430;48.154;16.458;2024-01-07T04:09:05;8.87;;;3.17;;
69310;SDS011;56430;48.154;16.458;2024-01-07T04:11:38;6.70;;;3.20;;
69310;SDS011;56430;48.154;16.458;2024-01-07T04:14:06;8.38;;;3.15;;
69310;SDS011;56430;48.154;16.458;2024-01-07T04:16:33;8.80;;;3.33;;
69310;SDS011;56430;48.154;16.458;2024-01-07T04:19:00;8.70;;;3.25;;
69310;SDS011;56430;48.154;16.458;2024-01-07T04:21:27;9.33;;;3.30;;
69310;SDS011;56430;48.154;16.458;2024-01-07T04:23:55;10.80;;;3.63;;
69310;SDS011;56430;48.154;16.458;2024-01-07T04:26:23;8.70;;;3.58;;
69310;SDS011;56430;48.154;16.458;2024-01-07T04:28:50;8.80;;;3.30;;
69310;SDS011;56430;48.154;16.458;2024-01-07T04:31:17;8.38;;;3.75;;
69310;SDS011;56430;48.154;16.458;2024-01-07T04:33:44;8.60;;;3.83;;
69310;SDS011;56430;48.154;16.458;2024-01-07T04:36:11;8.45;;;3.22;;
69310;SDS011;56430;48.154;16.458;2024-01-07T04:38:38;7.93;;;3.28;;
69310;SDS011;56430;48.154;16.458;2024-01-07T04:41:07;9.35;;;3.42;;
69310;SDS011;56430;48.154;16.458;2024-01-07T04:43:34;8.68;;;3.47;;
69310;SDS011;56430;48.154;16.458;2024-01-07T04:46:02;10.33;;;3.70;;
69310;SDS011;56430;48.154;16.458;2024-01-07T04:48:29;8.10;;;3.75;;
69310;SDS011;56430;48.154;16.458;2024-01-07T04:50:57;9.95;;;4.30;;
69310;SDS011;56430;48.154;16.458;2024-01-07T04:53:24;9.95;;;3.13;;
69310;SDS011;56430;48.154;16.458;2024-01-07T04:55:51;12.20;;;3.08;;
69310;SDS011;56430;48.154;16.458;2024-01-07T04:58:19;8.17;;;3.07;;
69310;SDS011;56430;48.154;16.458;2024-01-07T05:00:46;9.15;;;3.72;;
69310;SDS011;56430;48.154;16.458;2024-01-07T05:03:12;9.05;;;3.30;;
69310;SDS011;56430;48.154;16.458;2024-01-07T05:05:40;9.27;;;3.75;;
69310;SDS011;56430;48.154;16.458;2024-01-07T05:08:07;9.75;;;4.20;;
69310;SDS011;56430;48.154;16.458;2024-01-07T05:10:34;9.67;;;3.50;;
69310;SDS011;56430;48.154;16.458;2024-01-07T05:13:01;7.72;;;2.95;;
69310;SDS011;56430;48.154;16.458;2024-01-07T05:15:32;7.28;;;3.25;;
69310;SDS011;56430;48.154;16.458;2024-01-07T05:17:59;8.30;;;3.22;;
69310;SDS011;56430;48.154;16.458;2024-01-07T05:20:26;9.50;;;4.15;;
69310;SDS011;56430;48.154;16.458;2024-01-07T05:22:53;9.03;;;2.83;;
69310;SDS011;56430;48.154;16.458;2024-01-07T05:25:20;7.07;;;2.88;;
69310;SDS011;56430;48.154;16.458;2024-01-07T05:27:47;8.85;;;3.40;;
69310;SDS011;56430;48.154;16.458;2024-01-07T05:30:15;9.43;;;3.10;;
69310;SDS011;56430;48.154;16.458;2024-01-07T05:32:43;9.65;;;3.38;;
69310;SDS011;56430;48.154;16.458;2024-01-07T05:35:10;8.43;;;3.07;;
69310;SDS011;56430;48.154;16.458;2024-01-07T05:37:37;8.57;;;3.78;;
69310;SDS011;56430;48.154;16.458;2024-01-07T05:40:05;8.88;;;3.47;;
69310;SDS011;56430;48.154;16.458;2024-01-07T05:42:33;10.30;;;3.95;;
69310;SDS011;56430;48.154;16.458;2024-01-07T05:45:00;9.13;;;2.97;;
69310;SDS011;56430;48.154;16.458;2024-01-07T05:47:28;9.03;;;4.07;;
69310;SDS011;56430;48.154;16.458;2024-01-07T05:49:57;7.90;;;2.95;;
69310;SDS011;56430;48.154;16.458;2024-01-07T05:52:24;9.25;;;3.15;;
69310;SDS011;56430;48.154;16.458;2024-01-07T05:54:51;8.93;;;3.00;;
69310;SDS011;56430;48.154;16.458;2024-01-07T05:57:18;7.32;;;3.08;;
69310;SDS011;56430;48.154;16.458;2024-01-07T05:59:45;7.57;;;3.00;;
69310;SDS011;56430;48.154;16.458;2024-01-07T06:02:13;11.00;;;3.20;;
69310;SDS011;56430;48.154;16.458;2024-01-07T06:04:40;9.98;;;3.42;;
69310;SDS011;56430;48.154;16.458;2024-01-07T06:07:08;10.20;;;2.67;;
69310;SDS011;56430;48.154;16.458;2024-01-07T06:09:35;6.57;;;2.75;;
69310;SDS011;56430;48.154;16.458;2024-01-07T06:12:03;9.97;;;3.63;;
69310;SDS011;56430;48.154;16.458;2024-01-07T06:14:30;8.18;;;3.50;;
69310;SDS011;56430;48.154;16.458;2024-01-07T06:16:58;9.05;;;3.55;;
69310;SDS011;56430;48.154;16.458;2024-01-07T06:19:25;7.35;;;2.80;;
69310;SDS011;56430;48.154;16.458;2024-01-07T06:21:52;8.02;;;3.30;;
69310;SDS011;56430;48.154;16.458;2024-01-07T06:24:20;10.97;;;3.77;;
69310;SDS011;56430;48.154;16.458;2024-01-07T06:26:47;9.48;;;3.53;;
69310;SDS011;56430;48.154;16.458;2024-01-07T06:29:15;5.97;;;2.72;;
69310;SDS011;56430;48.154;16.458;2024-01-07T06:31:44;7.70;;;3.30;;
69310;SDS011;56430;48.154;16.458;2024-01-07T06:34:12;9.45;;;3.67;;
69310;SDS011;56430;48.154;16.458;2024-01-07T06:36:40;9.30;;;3.33;;
69310;SDS011;56430;48.154;16.458;2024-01-07T06:39:07;10.65;;;3.88;;
69310;SDS011;56430;48.154;16.458;2024-01-07T06:41:36;8.25;;;3.17;;
69310;SDS011;56430;48.154;16.458;2024-01-07T06:44:03;7.63;;;3.15;;
69310;SDS011;56430;48.154;16.458;2024-01-07T06:46:30;8.32;;;3.40;;
69310;SDS011;56430;48.154;16.458;2024-01-07T06:48:59;7.87;;;3.10;;
69310;SDS011;56430;48.154;16.458;2024-01-07T06:51:27;6.75;;;2.83;;
69310;SDS011;56430;48.154;16.458;2024-01-07T06:53:54;8.55;;;2.58;;
69310;SDS011;56430;48.154;16.458;2024-01-07T06:56:21;8.70;;;3.33;;
69310;SDS011;56430;48.154;16.458;2024-01-07T06:58:51;7.90;;;3.42;;
69310;SDS011;56430;48.154;16.458;2024-01-07T07:01:19;9.30;;;2.60;;
69310;SDS011;56430;48.154;16.458;2024-01-07T07:03:48;8.82;;;3.95;;
69310;SDS011;56430;48.154;16.458;2024-01-07T07:06:15;7.90;;;3.33;;
69310;SDS011;56430;48.154;16.458;2024-01-07T07:08:42;10.57;;;3.58;;
69310;SDS011;56430;48.154;16.458;2024-01-07T07:11:10;7.45;;;2.97;;
69310;SDS011;56430;48.154;16.458;2024-01-07T07:13:37;8.23;;;3.63;;
69310;SDS011;56430;48.154;16.458;2024-01-07T07:16:06;10.18;;;3.30;;
69310;SDS011;56430;48.154;16.458;2024-01-07T07:18:34;6.38;;;2.72;;
69310;SDS011;56430;48.154;16.458;2024-01-07T07:21:01;8.05;;;2.90;;
69310;SDS011;56430;48.154;16.458;2024-01-07T07:23:28;10.15;;;3.55;;
69310;SDS011;56430;48.154;16.458;2024-01-07T07:25:56;8.27;;;2.90;;
69310;SDS011;56430;48.154;16.458;2024-01-07T07:28:23;7.95;;;2.63;;
69310;SDS011;56430;48.154;16.458;2024-01-07T07:30:49;8.82;;;3.80;;
69310;SDS011;56430;48.154;16.458;2024-01-07T07:33:18;7.30;;;2.70;;
69310;SDS011;56430;48.154;16.458;2024-01-07T07:38:31;11.50;;;3.57;;
69310;SDS011;56430;48.154;16.458;2024-01-07T07:40:58;8.60;;;3.67;;
69310;SDS011;56430;48.154;16.458;2024-01-07T07:43:25;10.38;;;3.63;;
69310;SDS011;56430;48.154;16.458;2024-01-07T07:45:52;10.52;;;3.75;;
69310;SDS011;56430;48.154;16.458;2024-01-07T07:48:21;8.52;;;3.50;;
69310;SDS011;56430;48.154;16.458;2024-01-07T07:50:48;8.40;;;3.13;;
69310;SDS011;56430;48.154;16.458;2024-01-07T07:53:16;8.57;;;3.35;;
69310;SDS011;56430;48.154;16.458;2024-01-07T07:55:43;8.82;;;3.03;;
69310;SDS011;56430;48.154;16.458;2024-01-07T07:58:11;10.13;;;3.55;;
69310;SDS011;56430;48.154;16.458;2024-01-07T08:00:38;10.07;;;3.83;;
69310;SDS011;56430;48.154;16.458;2024-01-07T08:03:05;10.10;;;3.03;;
69310;SDS011;56430;48.154;16.458;2024-01-07T08:05:34;8.75;;;3.05;;
69310;SDS011;56430;48.154;16.458;2024-01-07T08:08:01;11.05;;;3.65;;
69310;SDS011;56430;48.154;16.458;2024-01-07T08:10:28;7.70;;;3.17;;
69310;SDS011;56430;48.154;16.458;2024-01-07T08:12:57;7.88;;;3.20;;
69310;SDS011;56430;48.154;16.458;2024-01-07T08:15:24;8.03;;;3.10;;
69310;SDS011;56430;48.154;16.458;2024-01-07T08:17:52;10.27;;;3.70;;
69310;SDS011;56430;48.154;16.458;2024-01-07T08:20:19;7.45;;;3.25;;
69310;SDS011;56430;48.154;16.458;2024-01-07T08:22:48;11.88;;;3.63;;
69310;SDS011;56430;48.154;16.458;2024-01-07T08:25:16;8.32;;;2.80;;
69310;SDS011;56430;48.154;16.458;2024-01-07T08:27:43;8.20;;;2.50;;
69310;SDS011;56430;48.154;16.458;2024-01-07T08:30:11;6.70;;;2.50;;
69310;SDS011;56430;48.154;16.458;2024-01-07T08:32:39;7.10;;;2.53;;
69310;SDS011;56430;48.154;16.458;2024-01-07T08:35:06;9.20;;;3.28;;
69310;SDS011;56430;48.154;16.458;2024-01-07T08:37:34;9.27;;;3.10;;
69310;SDS011;56430;48.154;16.458;2024-01-07T08:40:03;7.83;;;2.50;;
69310;SDS011;56430;48.154;16.458;2024-01-07T08:42:35;6.22;;;2.42;;
69310;SDS011;56430;48.154;16.458;2024-01-07T08:45:02;7.57;;;2.53;;
69310;SDS011;56430;48.154;16.458;2024-01-07T08:47:30;6.20;;;2.67;;
69310;SDS011;56430;48.154;16.458;2024-01-07T08:49:57;7.80;;;2.95;;
69310;SDS011;56430;48.154;16.458;2024-01-07T08:52:24;8.63;;;2.80;;
69310;SDS011;56430;48.154;16.458;2024-01-07T08:54:52;6.07;;;2.65;;
69310;SDS011;56430;48.154;16.458;2024-01-07T08:57:21;7.70;;;2.53;;
69310;SDS011;56430;48.154;16.458;2024-01-07T08:59:49;6.13;;;2.50;;
69310;SDS011;56430;48.154;16.458;2024-01-07T09:02:16;10.10;;;3.40;;
69310;SDS011;56430;48.154;16.458;2024-01-07T09:04:43;10.40;;;3.43;;
69310;SDS011;56430;48.154;16.458;2024-01-07T09:07:10;8.68;;;2.50;;
69310;SDS011;56430;48.154;16.458;2024-01-07T09:09:37;11.52;;;2.85;;
69310;SDS011;56430;48.154;16.458;2024-01-07T09:12:05;7.25;;;2.30;;
69310;SDS011;56430;48.154;16.458;2024-01-07T09:14:34;7.43;;;2.70;;
69310;SDS011;56430;48.154;16.458;2024-01-07T09:17:01;7.77;;;2.10;;
69310;SDS011;56430;48.154;16.458;2024-01-07T09:19:28;6.63;;;2.42;;
69310;SDS011;56430;48.154;16.458;2024-01-07T09:21:55;10.98;;;2.72;;
69310;SDS011;56430;48.154;16.458;2024-01-07T09:24:22;6.40;;;2.53;;
69310;SDS011;56430;48.154;16.458;2024-01-07T09:26:49;10.07;;;2.40;;
69310;SDS011;56430;48.154;16.458;2024-01-07T09:29:17;7.93;;;2.37;;
69310;SDS011;56430;48.154;16.458;2024-01-07T09:31:45;7.90;;;2.42;;
69310;SDS011;56430;48.154;16.458;2024-01-07T09:34:13;7.55;;;2.75;;
69310;SDS011;56430;48.154;16.458;2024-01-07T09:36:40;7.30;;;2.60;;
69310;SDS011;56430;48.154;16.458;2024-01-07T09:39:07;9.23;;;2.80;;
69310;SDS011;56430;48.154;16.458;2024-01-07T09:41:35;8.30;;;2.57;;
69310;SDS011;56430;48.154;16.458;2024-01-07T09:44:02;8.00;;;3.20;;
69310;SDS011;56430;48.154;16.458;2024-01-07T09:46:30;8.18;;;2.85;;
69310;SDS011;56430;48.154;16.458;2024-01-07T09:48:59;8.75;;;2.63;;
69310;SDS011;56430;48.154;16.458;2024-01-07T09:51:27;7.20;;;2.88;;
69310;SDS011;56430;48.154;16.458;2024-01-07T09:53:56;7.43;;;3.00;;
69310;SDS011;56430;48.154;16.458;2024-01-07T09:56:26;7.82;;;3.25;;
69310;SDS011;56430;48.154;16.458;2024-01-07T09:58:56;9.73;;;2.92;;
69310;SDS011;56430;48.154;16.458;2024-01-07T10:01:24;7.35;;;2.50;;
69310;SDS011;56430;48.154;16.458;2024-01-07T10:03:51;8.77;;;3.22;;
69310;SDS011;56430;48.154;16.458;2024-01-07T10:06:20;6.77;;;2.70;;
69310;SDS011;56430;48.154;16.458;2024-01-07T10:08:47;6.32;;;2.40;;
69310;SDS011;56430;48.154;16.458;2024-01-07T10:11:14;5.78;;;2.30;;
69310;SDS011;56430;48.154;16.458;2024-01-07T10:13:41;5.57;;;2.15;;
69310;SDS011;56430;48.154;16.458;2024-01-07T10:16:13;7.22;;;2.72;;
69310;SDS011;56430;48.154;16.458;2024-01-07T10:18:40;10.00;;;2.83;;
69310;SDS011;56430;48.154;16.458;2024-01-07T10:21:08;6.65;;;2.88;;
69310;SDS011;56430;48.154;16.458;2024-01-07T10:23:36;8.88;;;3.15;;
69310;SDS011;56430;48.154;16.458;2024-01-07T10:26:03;8.65;;;3.33;;
69310;SDS011;56430;48.154;16.458;2024-01-07T10:28:31;9.75;;;2.72;;
69310;SDS011;56430;48.154;16.458;2024-01-07T10:30:59;8.43;;;3.30;;
69310;SDS011;56430;48.154;16.458;2024-01-07T10:33:30;5.70;;;2.25;;
69310;SDS011;56430;48.154;16.458;2024-01-07T10:36:01;6.28;;;2.30;;
69310;SDS011;56430;48.154;16.458;2024-01-07T10:38:30;16.50;;;3.38;;
69310;SDS011;56430;48.154;16.458;2024-01-07T10:41:00;8.15;;;2.60;;
69310;SDS011;56430;48.154;16.458;2024-01-07T10:43:29;7.07;;;2.73;;
69310;SDS011;56430;48.154;16.458;2024-01-07T10:46:00;8.85;;;3.17;;
69310;SDS011;56430;48.154;16.458;2024-01-07T10:48:32;8.93;;;2.85;;
69310;SDS011;56430;48.154;16.458;2024-01-07T10:51:03;8.65;;;3.13;;
69310;SDS011;56430;48.154;16.458;2024-01-07T10:53:32;7.30;;;2.58;;
69310;SDS011;56430;48.154;16.458;2024-01-07T10:56:03;8.07;;;2.63;;
69310;SDS011;56430;48.154;16.458;2024-01-07T10:58:33;6.93;;;2.58;;
69310;SDS011;56430;48.154;16.458;2024-01-07T11:01:03;10.32;;;3.20;;
69310;SDS011;56430;48.154;16.458;2024-01-07T11:03:36;8.15;;;2.97;;
69310;SDS011;56430;48.154;16.458;2024-01-07T11:06:08;7.00;;;3.00;;
69310;SDS011;56430;48.154;16.458;2024-01-07T11:08:41;11.00;;;4.17;;
69310;SDS011;56430;48.154;16.458;2024-01-07T11:11:15;10.82;;;3.85;;
69310;SDS011;56430;48.154;16.458;2024-01-07T11:13:43;10.52;;;3.22;;
69310;SDS011;56430;48.154;16.458;2024-01-07T11:16:11;9.20;;;3.42;;
69310;SDS011;56430;48.154;16.458;2024-01-07T11:18:40;7.30;;;2.58;;
69310;SDS011;56430;48.154;16.458;2024-01-07T11:21:20;10.07;;;2.97;;
69310;SDS011;56430;48.154;16.458;2024-01-07T11:23:51;10.90;;;3.38;;
69310;SDS011;56430;48.154;16.458;2024-01-07T11:26:21;10.57;;;3.03;;
69310;SDS011;56430;48.154;16.458;2024-01-07T11:28:49;7.95;;;3.00;;
69310;SDS011;56430;48.154;16.458;2024-01-07T11:31:18;8.45;;;3.58;;
69310;SDS011;56430;48.154;16.458;2024-01-07T11:33:47;9.00;;;3.40;;
69310;SDS011;56430;48.154;16.458;2024-01-07T11:36:16;8.10;;;2.92;;
69310;SDS011;56430;48.154;16.458;2024-01-07T11:38:47;9.35;;;3.20;;
69310;SDS011;56430;48.154;16.458;2024-01-07T11:41:15;9.25;;;3.33;;
69310;SDS011;56430;48.154;16.458;2024-01-07T11:43:55;11.13;;;2.80;;
69310;SDS011;56430;48.154;16.458;2024-01-07T11:46:25;8.47;;;2.80;;
69310;SDS011;56430;48.154;16.458;2024-01-07T11:48:53;10.18;;;3.50;;
69310;SDS011;56430;48.154;16.458;2024-01-07T11:51:24;7.75;;;3.03;;
69310;SDS011;56430;48.154;16.458;2024-01-07T11:53:52;6.65;;;2.58;;
69310;SDS011;56430;48.154;16.458;2024-01-07T11:56:21;8.52;;;3.15;;
69310;SDS011;56430;48.154;16.458;2024-01-07T11:58:49;7.60;;;3.13;;
69310;SDS011;56430;48.154;16.458;2024-01-07T12:01:19;9.98;;;3.38;;
69310;SDS011;56430;48.154;16.458;2024-01-07T12:03:46;11.65;;;3.83;;
69310;SDS011;56430;48.154;16.458;2024-01-07T12:06:14;8.98;;;3.45;;
69310;SDS011;56430;48.154;16.458;2024-01-07T12:08:43;6.97;;;2.83;;
69310;SDS011;56430;48.154;16.458;2024-01-07T12:11:11;8.23;;;3.00;;
69310;SDS011;56430;48.154;16.458;2024-01-07T12:13:39;8.60;;;3.25;;
69310;SDS011;56430;48.154;16.458;2024-01-07T12:16:10;7.88;;;2.70;;
69310;SDS011;56430;48.154;16.458;2024-01-07T12:18:40;6.95;;;2.90;;
69310;SDS011;56430;48.154;16.458;2024-01-07T12:21:08;10.18;;;3.40;;
69310;SDS011;56430;48.154;16.458;2024-01-07T12:23:35;10.77;;;3.60;;
69310;SDS011;56430;48.154;16.458;2024-01-07T12:26:09;7.90;;;3.60;;
69310;SDS011;56430;48.154;16.458;2024-01-07T12:28:37;9.43;;;3.38;;
69310;SDS011;56430;48.154;16.458;2024-01-07T12:31:05;8.10;;;3.00;;
69310;SDS011;56430;48.154;16.458;2024-01-07T12:33:32;8.63;;;3.10;;
69310;SDS011;56430;48.154;16.458;2024-01-07T12:36:01;11.43;;;4.00;;
69310;SDS011;56430;48.154;16.458;2024-01-07T12:38:29;10.35;;;3.30;;
69310;SDS011;56430;48.154;16.458;2024-01-07T12:41:00;9.38;;;3.78;;
69310;SDS011;56430;48.154;16.458;2024-01-07T12:43:28;9.45;;;3.65;;
69310;SDS011;56430;48.154;16.458;2024-01-07T12:45:56;9.18;;;4.05;;
69310;SDS011;56430;48.154;16.458;2024-01-07T12:48:29;10.80;;;3.97;;
69310;SDS011;56430;48.154;16.458;2024-01-07T12:50:57;9.40;;;3.40;;
69310;SDS011;56430;48.154;16.458;2024-01-07T12:53:26;8.57;;;3.22;;
69310;SDS011;56430;48.154;16.458;2024-01-07T12:55:54;6.55;;;2.70;;
69310;SDS011;56430;48.154;16.458;2024-01-07T12:58:22;10.10;;;3.25;;
69310;SDS011;56430;48.154;16.458;2024-01-07T13:00:50;8.63;;;3.60;;
69310;SDS011;56430;48.154;16.458;2024-01-07T13:03:17;9.27;;;3.45;;
69310;SDS011;56430;48.154;16.458;2024-01-07T13:05:45;12.10;;;4.35;;
69310;SDS011;56430;48.154;16.458;2024-01-07T13:08:14;10.93;;;3.92;;
69310;SDS011;56430;48.154;16.458;2024-01-07T13:10:45;8.60;;;3.72;;
69310;SDS011;56430;48.154;16.458;2024-01-07T13:13:13;10.17;;;3.87;;
69310;SDS011;56430;48.154;16.458;2024-01-07T13:15:41;10.60;;;4.13;;
69310;SDS011;56430;48.154;16.458;2024-01-07T13:18:08;11.10;;;4.47;;
69310;SDS011;56430;48.154;16.458;2024-01-07T13:20:37;10.70;;;4.15;;
69310;SDS011;56430;48.154;16.458;2024-01-07T13:23:05;10.23;;;3.55;;
69310;SDS011;56430;48.154;16.458;2024-01-07T13:25:33;6.83;;;3.10;;
69310;SDS011;56430;48.154;16.458;2024-01-07T13:28:02;9.52;;;3.47;;
69310;SDS011;56430;48.154;16.458;2024-01-07T13:30:30;8.55;;;3.42;;
69310;SDS011;56430;48.154;16.458;2024-01-07T13:32:58;9.43;;;3.55;;
69310;SDS011;56430;48.154;16.458;2024-01-07T13:35:26;8.48;;;3.50;;
69310;SDS011;56430;48.154;16.458;2024-01-07T13:44:18;8.93;;;3.58;;
69310;SDS011;56430;48.154;16.458;2024-01-07T13:46:45;7.90;;;3.35;;
69310;SDS011;56430;48.154;16.458;2024-01-07T13:49:13;9.45;;;4.13;;
69310;SDS011;56430;48.154;16.458;2024-01-07T13:51:41;8.33;;;3.10;;
69310;SDS011;56430;48.154;16.458;2024-01-07T13:54:09;8.98;;;3.40;;
69310;SDS011;56430;48.154;16.458;2024-01-07T13:56:39;11.07;;;3.90;;
69310;SDS011;56430;48.154;16.458;2024-01-07T13:59:08;9.68;;;3.53;;
69310;SDS011;56430;48.154;16.458;2024-01-07T14:01:38;8.90;;;3.00;;
69310;SDS011;56430;48.154;16.458;2024-01-07T14:04:08;8.00;;;3.17;;
69310;SDS011;56430;48.154;16.458;2024-01-07T14:06:36;13.45;;;3.95;;
69310;SDS011;56430;48.154;16.458;2024-01-07T14:09:04;8.65;;;3.75;;
69310;SDS011;56430;48.154;16.458;2024-01-07T14:11:34;8.77;;;3.75;;
69310;SDS011;56430;48.154;16.458;2024-01-07T14:14:02;7.55;;;3.22;;
69310;SDS011;56430;48.154;16.458;2024-01-07T14:16:30;7.93;;;3.27;;
69310;SDS011;56430;48.154;16.458;2024-01-07T14:19:00;7.47;;;3.15;;
69310;SDS011;56430;48.154;16.458;2024-01-07T14:21:27;8.75;;;3.58;;
69310;SDS011;56430;48.154;16.458;2024-01-07T14:23:56;8.80;;;3.13;;
69310;SDS011;56430;48.154;16.458;2024-01-07T14:26:24;9.10;;;3.45;;
69310;SDS011;56430;48.154;16.458;2024-01-07T14:28:52;7.37;;;2.80;;
69310;SDS011;56430;48.154;16.458;2024-01-07T14:31:20;9.20;;;3.35;;
69310;SDS011;56430;48.154;16.458;2024-01-07T14:33:48;8.88;;;3.38;;
69310;SDS011;56430;48.154;16.458;2024-01-07T14:36:17;8.25;;;2.65;;
69310;SDS011;56430;48.154;16.458;2024-01-07T14:38:45;9.13;;;3.70;;
69310;SDS011;56430;48.154;16.458;2024-01-07T14:41:13;10.03;;;3.60;;
69310;SDS011;56430;48.154;16.458;2024-01-07T14:43:41;9.50;;;3.47;;
69310;SDS011;56430;48.154;16.458;2024-01-07T14:46:09;7.75;;;3.40;;
69310;SDS011;56430;48.154;16.458;2024-01-07T14:48:36;8.10;;;3.17;;
69310;SDS011;56430;48.154;16.458;2024-01-07T14:51:05;9.95;;;3.72;;